createdAt,value
2022-12-23T00:00:00.283Z,36.7
2022-12-23T00:10:00.313Z,37.2
2022-12-23T00:20:00.278Z,39.0
2022-12-23T00:30:00.259Z,42.0
2022-12-23T00:40:06.290Z,40.9
2022-12-23T00:50:00.270Z,39.7
2022-12-23T01:00:00.990Z,36.0
2022-12-23T01:10:00.807Z,34.3
2022-12-23T01:20:00.384Z,34.7
2022-12-23T01:30:00.520Z,35.5
2022-12-23T01:40:00.546Z,35.4
2022-12-23T01:50:00.514Z,36.4
2022-12-23T02:00:00.807Z,37.0
2022-12-23T02:10:00.600Z,31.2
2022-12-23T02:20:00.372Z,28.9
2022-12-23T02:30:01.191Z,27.1
2022-12-23T02:40:00.853Z,20.2
2022-12-23T02:50:01.458Z,18.3
2022-12-23T03:00:00.310Z,31.1
2022-12-23T03:10:00.243Z,44.4
2022-12-23T03:20:00.239Z,23.8
2022-12-23T03:30:00.250Z,37.6
2022-12-23T03:40:00.318Z,22.4
2022-12-23T03:50:00.442Z,26.3
2022-12-23T04:00:00.677Z,24.5
2022-12-23T04:10:00.373Z,26.8
2022-12-23T04:20:00.806Z,45.4
2022-12-23T04:30:00.744Z,45.0
2022-12-23T04:40:01.032Z,56.4
2022-12-23T04:50:00.840Z,54.8
2022-12-23T05:00:00.659Z,49.2
2022-12-23T05:10:00.362Z,46.2
2022-12-23T05:20:00.581Z,48.5
2022-12-23T05:30:00.685Z,50.2
2022-12-23T05:40:00.754Z,47.0
2022-12-23T05:50:00.787Z,44.5
2022-12-23T06:00:01.291Z,51.3
2022-12-23T06:10:01.019Z,44.2
2022-12-23T06:20:00.619Z,39.4
2022-12-23T06:30:00.446Z,65.4
2022-12-23T06:40:00.244Z,62.0
2022-12-23T06:50:00.255Z,46.2
2022-12-23T07:00:00.339Z,51.3
2022-12-23T07:10:00.347Z,64.8
2022-12-23T07:20:00.270Z,52.4
2022-12-23T07:30:00.281Z,64.1
2022-12-23T07:40:06.508Z,67.3
2022-12-23T07:50:00.875Z,58.9
2022-12-23T08:00:01.296Z,58.7
2022-12-23T08:10:00.433Z,76.8
2022-12-23T08:20:00.452Z,64.0
2022-12-23T08:30:00.351Z,87.7
2022-12-23T08:40:01.917Z,80.5
2022-12-23T08:50:00.931Z,77.3
2022-12-23T09:00:00.336Z,54.3
2022-12-23T09:10:00.284Z,88.4
2022-12-23T09:20:00.267Z,138.3
2022-12-23T09:30:00.286Z,227.7
2022-12-23T09:40:00.272Z,76.7
2022-12-23T09:50:00.249Z,162.4
2022-12-23T10:00:00.314Z,75.2
2022-12-23T10:10:00.250Z,64.7
2022-12-23T10:20:00.239Z,57.3
2022-12-23T10:30:13.893Z,62.1
2022-12-23T10:40:00.243Z,95.7
2022-12-23T10:50:00.239Z,60.7
2022-12-23T11:00:00.304Z,60.5
2022-12-23T11:10:00.270Z,81.3
2022-12-23T11:20:00.267Z,75.4
2022-12-23T11:30:00.288Z,76.0
2022-12-23T11:40:00.280Z,70.5
2022-12-23T11:50:00.266Z,44.1
2022-12-23T12:00:00.294Z,43.3
2022-12-23T12:10:00.242Z,47.2
2022-12-23T12:20:00.373Z,37.5
2022-12-23T12:30:06.156Z,43.0
2022-12-23T12:40:00.622Z,38.5
2022-12-23T12:50:00.672Z,36.1
2022-12-23T13:00:06.089Z,49.9
2022-12-23T13:10:00.748Z,57.9
2022-12-23T13:20:00.637Z,45.9
2022-12-23T13:30:00.365Z,47.5
2022-12-23T13:40:00.364Z,67.1
2022-12-23T13:50:00.251Z,70.7
2022-12-23T14:00:05.353Z,64.5
2022-12-23T14:10:00.259Z,59.0
2022-12-23T14:20:00.290Z,65.5
2022-12-23T14:30:05.726Z,61.3
2022-12-23T14:40:00.255Z,66.2
2022-12-23T14:50:01.053Z,66.6
2022-12-23T15:00:01.480Z,74.8
2022-12-23T15:10:01.606Z,63.9
2022-12-23T15:20:00.511Z,77.5
2022-12-23T15:30:00.360Z,77.4
2022-12-23T15:40:11.446Z,98.5
2022-12-23T15:50:00.493Z,62.8
2022-12-23T16:00:01.337Z,121.3
2022-12-23T16:10:00.472Z,140.8
2022-12-23T16:20:00.257Z,111.4
2022-12-23T16:30:00.530Z,98.2
2022-12-23T16:40:00.462Z,162.7
2022-12-23T16:50:00.263Z,133.3
2022-12-23T17:00:00.680Z,133.9
2022-12-23T17:10:00.337Z,110.5
2022-12-23T17:20:00.294Z,81.0
2022-12-23T17:30:00.242Z,48.3
2022-12-23T17:40:00.270Z,75.0
2022-12-23T17:50:00.253Z,318.6
2022-12-23T18:00:00.333Z,92.7
2022-12-23T18:10:00.221Z,32.8
2022-12-23T18:20:00.227Z,26.8
2022-12-23T18:30:00.304Z,30.1
2022-12-23T18:40:00.365Z,12.3
2022-12-23T18:50:00.249Z,15.3
2022-12-23T19:00:00.272Z,140.6
2022-12-23T19:10:00.230Z,107.0
2022-12-23T19:20:00.248Z,101.0
2022-12-23T19:30:00.382Z,75.9
2022-12-23T19:40:00.261Z,62.3
2022-12-23T19:50:00.237Z,61.4
2022-12-23T20:00:00.300Z,91.9
2022-12-23T20:10:00.284Z,54.1
2022-12-23T20:20:00.255Z,139.0
2022-12-23T20:30:00.304Z,114.1
2022-12-23T20:40:00.264Z,128.4
2022-12-23T20:50:00.255Z,126.3
2022-12-23T21:00:00.438Z,112.0
2022-12-23T21:10:00.425Z,158.7
2022-12-23T21:20:06.954Z,159.7
2022-12-23T21:30:00.323Z,176.6
2022-12-23T21:40:00.325Z,135.7
2022-12-23T21:50:00.259Z,174.9
2022-12-23T22:00:00.329Z,170.9
2022-12-23T22:10:00.246Z,159.5
2022-12-23T22:20:00.250Z,134.9
2022-12-23T22:30:00.257Z,127.7
2022-12-23T22:40:00.297Z,113.9
2022-12-23T22:50:00.254Z,121.0
2022-12-23T23:00:04.774Z,110.2
2022-12-23T23:10:00.301Z,120.2
2022-12-23T23:20:00.285Z,155.2
2022-12-23T23:30:00.282Z,95.7
2022-12-23T23:40:00.318Z,101.3
2022-12-23T23:50:00.264Z,93.4
